Time;durP1;ratioP1;P1;durP2;ratioP2;P2;SDS_P1;SDS_P2;PMS_P1;PMS_P2;Temp;Humidity;BMP_temperature;BMP_pressure;BME280_temperature;BME280_humidity;BME280_pressure;Samples;Min_cycle;Max_cycle;Signal;HPM_P1;HPM_P2
2024/04/10 00:01:07;;;;;;;2.90;0.80;;;11.20;26.20;;;11.16;73.53;99202.44;5477878;26;20813;-67
2024/04/10 00:03:36;;;;;;;3.13;0.90;;;11.20;54.80;;;11.13;74.04;99205.22;5480516;26;20529;-67
2024/04/10 00:06:05;;;;;;;3.67;1.10;;;11.10;99.90;;;11.18;74.20;99203.22;5482129;26;21059;-66
2024/04/10 00:08:37;;;;;;;1.73;1.00;;;11.10;99.90;;;11.14;74.11;99214.69;5482454;26;20529;-66
2024/04/10 00:11:06;;;;;;;1.87;0.80;;;11.10;99.90;;;11.20;74.20;99214.38;5481733;26;20506;-66
2024/04/10 00:13:37;;;;;;;3.43;1.00;;;11.20;99.90;;;11.10;74.79;99218.38;5481247;26;20555;-67
2024/04/10 00:16:08;;;;;;;3.83;1.20;;;11.10;99.90;;;11.05;75.68;99226.41;5481777;26;20503;-67
2024/04/10 00:18:39;;;;;;;1.67;1.10;;;11.10;99.90;;;11.17;75.46;99235.34;5482727;26;20550;-67
2024/04/10 00:21:07;;;;;;;4.13;1.17;;;11.10;99.90;;;11.10;75.67;99239.19;5480587;26;20830;-65
2024/04/10 00:23:37;;;;;;;4.97;1.63;;;11.10;99.90;;;11.16;75.71;99244.06;5479673;26;20548;-66
2024/04/10 00:26:04;;;;;;;3.20;1.20;;;11.10;99.90;;;11.24;75.85;99236.75;5474434;26;20522;-66
2024/04/10 00:28:34;;;;;;;2.83;1.23;;;11.20;99.90;;;11.16;75.64;99244.06;5477482;26;23222;-67
2024/04/10 00:31:07;;;;;;;1.67;0.97;;;11.10;99.90;;;11.00;76.78;99238.75;5474146;26;21089;-67
2024/04/10 00:33:38;;;;;;;6.77;1.60;;;11.10;99.90;;;11.13;76.72;99244.25;5479564;26;21033;-66
2024/04/10 00:36:08;;;;;;;5.30;1.67;;;11.10;99.90;;;11.07;77.16;99250.56;5472036;26;20845;-67
2024/04/10 00:38:38;;;;;;;4.33;2.00;;;11.10;99.90;;;11.09;77.00;99254.84;5479233;26;20470;-66
2024/04/10 00:41:07;;;;;;;3.23;1.80;;;11.00;1.00;;;11.06;77.45;99250.66;5481617;26;20946;-67
2024/04/10 00:43:37;;;;;;;3.87;1.47;;;11.10;1.00;;;11.00;77.84;99259.56;5474471;26;20470;-66
2024/04/10 00:46:14;;;;;;;3.17;1.23;;;11.00;1.00;;;10.97;78.44;99262.34;5480975;26;20462;-66
2024/04/10 00:48:46;;;;;;;3.07;1.47;;;11.00;1.00;;;10.99;78.80;99263.09;5478554;26;20537;-66
2024/04/10 00:51:19;;;;;;;3.57;1.70;;;11.00;1.00;;;11.03;78.36;99246.44;5475897;26;20531;-69
2024/04/10 00:53:49;;;;;;;3.63;1.47;;;11.00;1.00;;;10.96;78.81;99260.66;5470329;26;21131;-67
2024/04/10 00:56:17;;;;;;;4.17;2.20;;;11.00;1.00;;;11.03;78.32;99256.84;5477907;26;20510;-67
2024/04/10 00:58:52;;;;;;;2.60;1.73;;;11.00;1.00;;;11.01;78.49;99261.28;5480972;26;20477;-66
2024/04/10 01:01:22;;;;;;;4.03;1.63;;;11.00;1.00;;;10.92;79.25;99269.53;5481739;26;20477;-66
2024/04/10 01:03:52;;;;;;;2.20;1.40;;;10.90;1.00;;;10.95;79.85;99277.16;5479422;26;20510;-64
2024/04/10 01:06:29;;;;;;;3.27;1.20;;;10.90;1.00;;;11.07;79.15;99270.53;5481830;26;20454;-66
2024/04/10 01:09:01;;;;;;;3.33;1.70;;;11.00;1.00;;;11.13;78.28;99291.06;5457805;26;20462;-66
2024/04/10 01:16:04;;;;;;;2.67;1.50;;;11.00;1.00;;;10.99;78.89;99289.09;5458448;26;20467;-66
2024/04/10 01:18:33;;;;;;;2.60;1.67;;;11.00;1.00;;;10.97;79.70;99292.72;5478624;26;21372;-69
2024/04/10 01:21:04;;;;;;;5.00;1.83;;;10.90;1.00;;;11.11;78.83;99290.31;5468712;26;20531;-65
2024/04/10 01:23:33;;;;;;;2.87;1.67;;;11.00;1.00;;;11.16;78.62;99303.06;5453274;26;20455;-66
2024/04/10 01:26:03;;;;;;;3.50;1.30;;;11.00;1.00;;;11.13;78.91;99298.03;5468725;26;20509;-66
2024/04/10 01:28:30;;;;;;;3.20;1.33;;;11.10;1.00;;;11.01;79.02;99302.88;5469062;26;20518;-66
2024/04/10 01:31:00;;;;;;;3.37;1.27;;;11.00;1.00;;;11.06;78.67;99300.91;5462324;26;20522;-68
2024/04/10 01:33:27;;;;;;;3.17;1.63;;;11.00;1.00;;;11.06;78.27;99297.50;5462135;26;20670;-67
2024/04/10 01:35:58;;;;;;;2.60;1.67;;;11.00;1.00;;;10.85;79.17;99312.34;5479960;26;21089;-66
2024/04/10 01:38:25;;;;;;;5.03;1.63;;;10.90;1.00;;;10.96;78.41;99309.22;5481850;26;20454;-66
2024/04/10 01:40:57;;;;;;;3.70;1.47;;;10.90;1.00;;;10.87;78.39;99305.28;5473277;26;20538;-66
2024/04/10 01:43:25;;;;;;;2.80;1.47;;;10.90;1.00;;;11.00;78.35;99311.59;5468559;26;20902;-66
2024/04/10 01:45:55;;;;;;;1.83;1.30;;;10.90;1.00;;;10.98;78.44;99317.81;5476025;26;20514;-66
2024/04/10 01:48:22;;;;;;;5.37;1.73;;;11.00;1.00;;;11.01;78.27;99318.50;5463719;26;20603;-67
2024/04/10 01:50:52;;;;;;;2.63;1.60;;;11.00;1.00;;;11.00;78.36;99315.97;5475490;26;20470;-67
2024/04/10 01:53:19;;;;;;;4.03;1.60;;;11.00;1.00;;;11.11;77.11;99302.47;5463403;26;20507;-69
2024/04/10 01:55:49;;;;;;;5.30;1.87;;;11.10;1.00;;;11.14;76.36;99317.91;5473675;26;20451;-66
2024/04/10 01:58:19;;;;;;;2.87;1.50;;;11.10;99.90;;;11.06;77.04;99316.50;5461279;26;20507;-67
2024/04/10 02:00:49;;;;;;;3.50;1.67;;;11.10;99.90;;;10.95;77.70;99323.16;5460175;26;20527;-67
2024/04/10 02:03:16;;;;;;;6.10;2.13;;;11.00;99.90;;;10.93;78.71;99327.56;5466198;26;20515;-67
2024/04/10 02:05:46;;;;;;;4.00;1.70;;;11.00;1.00;;;10.93;78.59;99331.00;5467192;26;20467;-66
2024/04/10 02:08:13;;;;;;;3.23;1.53;;;10.90;1.00;;;10.89;79.29;99333.84;5462541;26;20454;-66
2024/04/10 02:10:43;;;;;;;3.00;1.30;;;10.90;1.00;;;10.94;78.55;99343.09;5467018;26;20462;-66
2024/04/10 02:13:10;;;;;;;2.77;1.47;;;10.90;1.00;;;10.71;80.00;99353.72;5471360;26;20450;-67
2024/04/10 02:15:43;;;;;;;2.50;1.40;;;10.80;1.00;;;10.61;81.86;99360.25;5469445;26;20523;-66
2024/04/10 02:18:10;;;;;;;3.47;1.40;;;10.70;99.90;;;10.58;82.65;99368.16;5476052;26;20502;-66
2024/04/10 02:20:40;;;;;;;5.87;1.83;;;10.60;99.90;;;10.55;83.37;99369.16;5470462;26;20583;-68
2024/04/10 02:23:08;;;;;;;3.27;1.53;;;10.60;99.90;;;10.65;82.73;99361.78;5468897;26;20458;-66
2024/04/10 02:25:40;;;;;;;2.17;1.80;;;10.60;99.90;;;10.67;81.70;99354.78;5461328;26;21108;-66
2024/04/10 02:28:07;;;;;;;4.40;1.40;;;10.70;1.00;;;10.72;82.09;99364.97;5462166;26;20467;-66
2024/04/10 02:30:37;;;;;;;3.47;1.70;;;10.70;99.90;;;10.63;81.80;99366.22;5463501;26;20503;-66
2024/04/10 02:33:07;;;;;;;2.83;1.63;;;10.70;1.00;;;10.72;81.03;99363.19;5472330;26;20462;-66
2024/04/10 02:35:37;;;;;;;3.97;1.60;;;10.70;1.00;;;10.55;81.40;99365.72;5470921;26;20454;-66
2024/04/10 02:38:05;;;;;;;3.53;1.43;;;10.60;1.00;;;10.59;81.73;99367.25;5465721;26;20473;-66
2024/04/10 02:40:35;;;;;;;2.97;2.00;;;10.60;31.50;;;10.45;82.73;99372.22;5462229;26;20467;-67
2024/04/10 02:43:04;;;;;;;3.23;1.90;;;10.50;99.90;;;10.35;84.02;99365.75;5476759;26;20513;-66
2024/04/10 02:45:34;;;;;;;10.57;2.53;;;10.40;99.90;;;10.35;85.46;99381.34;5474420;26;20474;-67
2024/04/10 02:48:02;;;;;;;2.97;1.87;;;10.40;1.00;;;10.41;84.64;99394.06;5475211;26;20537;-67
2024/04/10 02:50:34;;;;;;;5.30;1.90;;;10.40;1.00;;;10.39;84.48;99391.53;5472692;26;20466;-66
2024/04/10 02:53:02;;;;;;;3.63;1.90;;;10.40;99.90;;;10.32;85.26;99400.50;5479963;26;20521;-69
2024/04/10 02:55:31;;;;;;;2.70;1.50;;;10.40;1.00;;;10.40;85.32;99392.38;5468960;26;20467;-67
2024/04/10 02:57:58;;;;;;;4.67;2.13;;;10.40;1.00;;;10.53;84.13;99403.94;5473798;26;20438;-66
2024/04/10 03:00:29;;;;;;;6.37;2.20;;;10.50;99.90;;;10.40;84.74;99408.81;5468525;26;20846;-67
2024/04/10 03:02:56;;;;;;;5.60;1.70;;;10.50;99.90;;;10.48;84.64;99414.53;5475743;26;20458;-67
2024/04/10 03:05:26;;;;;;;5.67;2.50;;;10.50;1.00;;;10.53;83.57;99411.72;5475311;26;20579;-66
2024/04/10 03:07:57;;;;;;;4.37;2.20;;;10.50;99.90;;;10.45;83.21;99416.41;5477959;26;20457;-67
2024/04/10 03:10:27;;;;;;;6.00;2.10;;;10.50;99.90;;;10.57;82.32;99415.91;5475386;26;20470;-67
2024/04/10 03:12:55;;;;;;;5.10;2.20;;;10.60;3.30;;;10.55;81.97;99425.50;5474385;26;21044;-66
2024/04/10 03:15:24;;;;;;;6.53;2.40;;;10.60;99.90;;;10.55;81.44;99426.34;5473767;26;20510;-65
2024/04/10 03:17:53;;;;;;;5.43;2.00;;;10.50;20.30;;;10.54;81.24;99437.66;5460666;26;20520;-66
2024/04/10 03:20:23;;;;;;;5.20;2.30;;;10.60;1.00;;;10.45;81.20;99443.25;5457222;26;20467;-66
2024/04/10 03:22:51;;;;;;;4.47;2.30;;;10.50;1.00;;;10.45;81.21;99452.78;5471249;26;20543;-66
2024/04/10 03:25:27;;;;;;;8.47;2.80;;;10.40;1.00;;;10.26;82.55;99465.72;5448849;26;20473;-66
2024/04/10 03:27:54;;;;;;;5.47;2.37;;;10.30;99.90;;;10.30;82.87;99463.84;5458849;26;20522;-65
2024/04/10 03:30:24;;;;;;;3.00;2.17;;;10.30;99.90;;;10.18;82.72;99468.63;5465871;26;20466;-65
2024/04/10 03:32:52;;;;;;;5.83;2.50;;;10.30;99.90;;;10.23;82.46;99468.47;5467254;26;20525;-66
2024/04/10 03:35:22;;;;;;;5.93;2.67;;;10.30;99.90;;;10.24;81.75;99470.97;5459172;26;20459;-66
2024/04/10 03:37:50;;;;;;;7.20;2.30;;;10.30;1.00;;;10.22;81.84;99470.22;5473948;26;20461;-66
2024/04/10 03:40:21;;;;;;;7.87;2.50;;;10.30;99.90;;;10.17;82.75;99479.94;5468634;26;20531;-69
2024/04/10 03:42:56;;;;;;;7.33;2.73;;;10.20;99.90;;;10.12;84.03;99481.84;5457782;26;20475;-66
2024/04/10 03:45:28;;;;;;;6.00;2.23;;;10.20;99.90;;;10.12;84.44;99476.66;5465114;26;21074;-68
2024/04/10 03:47:58;;;;;;;6.70;1.90;;;10.20;99.90;;;10.06;85.36;99487.28;5466690;26;20515;-66
2024/04/10 03:50:28;;;;;;;3.80;2.50;;;10.10;1.00;;;10.18;84.78;99484.22;5457870;26;20467;-71
2024/04/10 03:52:57;;;;;;;6.03;2.70;;;10.20;1.00;;;10.24;84.03;99488.31;5468017;26;20523;-67
2024/04/10 03:55:27;;;;;;;6.80;2.77;;;10.30;99.90;;;10.31;81.65;99494.09;5462637;26;20514;-66
2024/04/10 03:57:57;;;;;;;7.97;3.43;;;10.30;1.00;;;10.27;82.02;99494.25;5458110;26;20580;-66
2024/04/10 04:00:29;;;;;;;4.50;2.90;;;10.30;14.60;;;10.11;82.88;99497.47;5474092;26;20649;-66
2024/04/10 04:02:56;;;;;;;4.53;2.50;;;10.20;99.90;;;10.02;84.78;99498.72;5463060;26;20897;-66
2024/04/10 04:05:26;;;;;;;7.40;2.80;;;10.10;1.00;;;10.06;84.85;99502.88;5465757;26;20463;-67
2024/04/10 04:07:54;;;;;;;3.87;2.43;;;10.10;1.00;;;10.02;85.19;99516.06;5464089;26;20509;-66
2024/04/10 04:10:23;;;;;;;4.70;2.90;;;10.10;1.00;;;9.94;85.98;99524.16;5484884;26;20997;-66
2024/04/10 04:12:51;;;;;;;5.13;2.70;;;10.00;1.00;;;10.00;85.40;99523.06;5466836;26;21014;-66
2024/04/10 04:15:24;;;;;;;5.07;2.83;;;10.00;1.00;;;10.11;85.21;99532.09;5465584;26;20454;-66
2024/04/10 04:17:51;;;;;;;5.07;2.77;;;10.10;1.00;;;10.12;85.00;99531.19;5458274;26;20562;-66
2024/04/10 04:20:21;;;;;;;7.30;3.10;;;10.10;1.00;;;10.14;84.59;99537.19;5469550;26;20522;-68
2024/04/10 04:22:51;;;;;;;4.80;2.43;;;10.20;1.00;;;10.12;84.23;99553.72;5467250;26;20515;-66
2024/04/10 04:25:21;;;;;;;6.23;2.83;;;10.10;99.90;;;10.08;84.43;99567.75;5459384;26;20471;-67
2024/04/10 04:27:48;;;;;;;8.57;3.10;;;10.10;1.00;;;10.07;85.28;99577.31;5463876;26;20535;-65
2024/04/10 04:30:18;;;;;;;5.43;2.67;;;10.10;1.00;;;10.21;83.56;99582.84;5459966;26;20458;-66
2024/04/10 04:32:48;;;;;;;5.90;2.97;;;10.20;99.90;;;10.17;83.96;99575.19;5469578;26;20450;-66
2024/04/10 04:35:19;;;;;;;8.43;3.57;;;10.20;1.00;;;10.08;84.57;99591.13;5467228;26;21130;-67
2024/04/10 04:37:56;;;;;;;5.10;3.23;;;10.10;1.00;;;10.05;85.73;99586.91;5477966;26;20556;-68
2024/04/10 04:40:32;;;;;;;8.20;3.00;;;10.10;1.00;;;10.03;85.59;99590.44;5472534;26;20548;-67
2024/04/10 04:43:02;;;;;;;6.57;3.20;;;10.10;1.00;;;9.95;86.00;99589.91;5456183;26;20908;-67
2024/04/10 04:45:33;;;;;;;6.53;3.00;;;10.00;1.00;;;9.92;87.67;99603.84;5501897;26;21088;-66
2024/04/10 04:48:04;;;;;;;8.53;3.33;;;10.00;99.90;;;9.95;86.92;99602.91;5463120;26;20465;-66
2024/04/10 04:50:34;;;;;;;6.00;2.97;;;9.90;1.00;;;10.00;86.95;99611.34;5466818;26;20454;-67
2024/04/10 04:53:01;;;;;;;5.20;2.73;;;10.00;1.00;;;10.15;85.50;99611.63;5473682;26;20474;-67
2024/04/10 04:55:32;;;;;;;7.00;2.87;;;10.10;1.00;;;10.16;85.33;99618.53;5477790;26;21249;-66
2024/04/10 04:57:59;;;;;;;8.40;2.90;;;10.20;1.00;;;10.26;84.85;99619.03;5475641;26;20504;-66
2024/04/10 05:00:29;;;;;;;6.53;2.70;;;10.30;1.00;;;10.25;85.19;99625.13;5482766;26;20458;-66
2024/04/10 05:02:57;;;;;;;5.43;3.07;;;10.30;1.00;;;10.32;84.44;99625.72;5477197;26;20514;-65
2024/04/10 05:05:29;;;;;;;5.03;2.77;;;10.30;99.90;;;10.29;84.95;99628.47;5470373;26;20550;-67
2024/04/10 05:08:03;;;;;;;8.43;2.70;;;10.30;99.90;;;10.24;85.48;99637.25;5474685;26;20457;-66
2024/04/10 05:10:33;;;;;;;9.87;3.10;;;10.30;1.00;;;10.24;86.33;99631.22;5473067;26;20795;-68
2024/04/10 05:13:00;;;;;;;6.30;2.90;;;10.30;1.00;;;10.22;86.39;99638.25;5464431;26;20526;-66
2024/04/10 05:15:30;;;;;;;7.97;3.13;;;10.30;1.00;;;10.28;85.67;99643.19;5476449;26;20874;-68
2024/04/10 05:17:57;;;;;;;6.87;3.20;;;10.30;1.00;;;10.26;85.28;99639.81;5473004;26;20523;-67
2024/04/10 05:20:30;;;;;;;6.97;3.63;;;10.30;1.00;;;10.26;85.76;99643.25;5479255;26;20460;-66
2024/04/10 05:22:58;;;;;;;5.87;2.80;;;10.30;1.00;;;10.39;83.84;99653.16;5463576;26;20470;-67
2024/04/10 05:25:27;;;;;;;5.43;3.30;;;10.40;99.90;;;10.51;83.59;99665.72;5477070;26;20518;-67
2024/04/10 05:27:56;;;;;;;7.50;3.30;;;10.40;99.90;;;10.65;82.33;99673.78;5475553;26;20515;-66
2024/04/10 05:30:26;;;;;;;9.43;3.03;;;10.60;99.90;;;10.91;79.98;99670.16;5472678;26;20466;-66
2024/04/10 05:32:53;;;;;;;11.43;3.27;;;10.80;1.00;;;11.14;77.86;99676.97;5463293;26;20544;-69
2024/04/10 05:35:25;;;;;;;7.73;3.07;;;11.00;1.00;;;11.18;76.93;99686.38;5466282;26;20531;-66
2024/04/10 05:37:56;;;;;;;4.90;2.93;;;11.10;99.90;;;11.22;76.54;99688.78;5468793;26;20455;-66
2024/04/10 05:40:27;;;;;;;7.87;2.60;;;11.20;99.90;;;11.20;77.03;99695.78;5461746;26;20662;-66
2024/04/10 05:42:54;;;;;;;9.00;3.17;;;11.20;99.90;;;11.32;76.08;99692.69;5466854;26;20460;-67
2024/04/10 05:45:24;;;;;;;6.43;3.23;;;11.30;99.90;;;11.32;76.11;99699.66;5469722;26;20514;-67
2024/04/10 05:47:51;;;;;;;7.40;3.13;;;11.30;99.90;;;11.41;75.10;99700.09;5459871;26;20460;-66
2024/04/10 05:50:25;;;;;;;7.37;3.67;;;11.40;99.90;;;11.49;74.21;99709.34;5467638;26;21345;-68
2024/04/10 05:52:55;;;;;;;7.37;3.30;;;11.50;92.20;;;11.38;75.21;99718.47;5474664;26;20517;-68
2024/04/10 05:55:24;;;;;;;8.77;3.20;;;11.40;99.90;;;11.56;76.00;99716.81;5470684;26;20577;-67
2024/04/10 05:57:52;;;;;;;6.47;3.23;;;11.50;99.90;;;11.67;73.06;99718.97;5473332;26;20469;-67
2024/04/10 06:00:22;;;;;;;4.80;3.20;;;11.70;1.00;;;11.98;71.58;99714.13;5466708;26;20508;-67
2024/04/10 06:02:52;;;;;;;8.43;2.80;;;11.90;1.00;;;12.13;70.23;99721.28;5459502;26;20459;-67
2024/04/10 06:05:20;;;;;;;5.93;3.40;;;12.10;1.00;;;12.37;67.85;99729.75;5465816;26;20518;-68
2024/04/10 06:07:50;;;;;;;6.80;3.07;;;12.30;1.00;;;12.47;67.07;99732.75;5475423;26;20276;-69
2024/04/10 06:10:20;;;;;;;6.23;3.53;;;12.50;1.00;;;12.39;67.57;99746.16;5476441;26;20575;-68
2024/04/10 06:12:51;;;;;;;8.23;2.97;;;12.50;1.00;;;12.34;67.02;99732.50;5462897;26;20237;-67
2024/04/10 06:15:18;;;;;;;8.03;3.00;;;12.50;99.90;;;12.22;67.72;99748.69;5465985;26;21052;-68
2024/04/10 06:17:48;;;;;;;8.43;2.70;;;12.40;99.90;;;12.37;66.72;99742.78;5463222;26;20288;-68
2024/04/10 06:20:18;;;;;;;9.60;3.37;;;12.50;99.90;;;12.62;64.85;99747.72;5468917;26;20277;-67
2024/04/10 06:22:46;;;;;;;11.63;2.80;;;12.60;99.90;;;12.51;65.41;99748.22;5452113;26;20229;-68
2024/04/10 06:25:16;;;;;;;7.10;2.97;;;12.60;99.90;;;12.36;66.05;99751.53;5466769;26;20642;-69
2024/04/10 06:27:46;;;;;;;5.97;2.50;;;12.50;99.90;;;12.33;66.16;99751.66;5476739;26;20589;-69
2024/04/10 06:30:15;;;;;;;7.07;2.70;;;12.50;99.90;;;12.50;65.24;99756.09;5463793;26;20615;-68
2024/04/10 06:32:43;;;;;;;4.60;2.63;;;12.50;99.90;;;12.46;63.92;99764.97;5473433;26;20288;-67
2024/04/10 06:35:14;;;;;;;6.87;2.67;;;12.50;99.90;;;12.17;65.68;99777.56;5476265;26;20249;-67
2024/04/10 06:37:41;;;;;;;6.00;2.97;;;12.40;99.90;;;12.11;66.40;99766.56;5475954;26;20237;-67
2024/04/10 06:40:11;;;;;;;4.93;3.10;;;12.30;99.90;;;12.31;65.34;99774.31;5468753;26;20233;-68
2024/04/10 06:42:38;;;;;;;5.53;2.77;;;12.40;99.90;;;12.46;64.71;99786.69;5464719;26;20750;-67
2024/04/10 06:45:10;;;;;;;6.97;2.80;;;12.50;99.90;;;12.34;64.66;99776.81;5469697;26;20288;-68
2024/04/10 06:47:38;;;;;;;6.60;2.80;;;12.40;99.90;;;12.43;64.08;99784.22;5466604;26;21034;-67
2024/04/10 06:50:11;;;;;;;8.00;3.20;;;12.40;99.90;;;12.39;64.15;99779.19;5469072;26;20531;-67
2024/04/10 06:52:38;;;;;;;7.43;3.10;;;12.40;99.90;;;12.30;65.09;99783.09;5468144;26;20265;-68
2024/04/10 06:55:09;;;;;;;6.60;3.03;;;12.40;99.90;;;12.09;65.72;99786.66;5464485;26;20248;-67
2024/04/10 06:57:36;;;;;;;6.17;3.00;;;12.30;99.90;;;12.22;64.85;99795.63;5477614;26;21035;-67
2024/04/10 07:00:12;;;;;;;5.60;2.70;;;12.30;99.90;;;12.15;65.01;99797.66;5477251;26;20541;-69
2024/04/10 07:02:40;;;;;;;3.97;2.80;;;12.30;99.90;;;12.02;65.64;99790.44;5468152;26;20570;-66
2024/04/10 07:05:11;;;;;;;9.13;3.20;;;12.20;99.90;;;12.19;65.17;99798.34;5485520;26;20234;-67
2024/04/10 07:07:38;;;;;;;9.67;3.03;;;12.20;99.90;;;12.24;64.86;99802.44;5459026;26;20248;-67
2024/04/10 07:10:09;;;;;;;6.20;2.90;;;12.20;99.90;;;12.13;65.59;99807.28;5444497;26;20456;-67
2024/04/10 07:12:36;;;;;;;7.27;2.97;;;12.20;99.90;;;12.05;65.26;99811.97;5458247;26;20624;-66
2024/04/10 07:15:11;;;;;;;8.07;2.60;;;12.20;99.90;;;12.00;65.69;99815.69;5461964;26;20272;-67
2024/04/10 07:17:38;;;;;;;5.83;3.17;;;12.10;99.90;;;12.18;65.94;99825.31;5478318;26;20457;-67
2024/04/10 07:20:09;;;;;;;4.30;2.80;;;12.20;99.90;;;12.14;66.91;99828.97;5473512;26;20446;-67
2024/04/10 07:22:36;;;;;;;6.60;2.87;;;12.20;99.90;;;12.23;66.49;99825.97;5467064;26;20846;-66
2024/04/10 07:25:08;;;;;;;6.93;2.90;;;12.30;99.90;;;12.30;66.06;99830.03;5476012;26;20314;-66
2024/04/10 07:29:14;;;;;;;7.57;3.20;;;12.30;99.90;;;12.54;64.55;99825.44;5576318;25;20717;-68
2024/04/10 07:31:41;;;;;;;6.53;2.90;;;12.50;99.90;;;12.50;64.32;99837.81;5535084;25;20278;-67
2024/04/10 07:34:14;;;;;;;6.27;3.00;;;12.50;99.90;;;12.57;65.20;99848.81;5532651;25;20258;-66
2024/04/10 07:36:41;;;;;;;3.97;2.90;;;12.60;99.90;;;12.63;63.67;99851.97;5534014;25;20335;-67
2024/04/10 07:39:14;;;;;;;5.97;2.77;;;12.70;99.90;;;12.49;64.39;99845.69;5530999;25;20236;-66
2024/04/10 07:41:43;;;;;;;5.33;2.60;;;12.60;99.90;;;12.60;64.31;99849.50;5527127;25;20235;-68
2024/04/10 07:44:17;;;;;;;6.27;2.87;;;12.70;99.90;;;12.84;63.50;99852.78;5520771;25;20267;-67
2024/04/10 07:46:44;;;;;;;5.97;2.60;;;12.80;99.90;;;12.99;63.16;99856.44;5524986;25;20331;-71
2024/04/10 07:49:15;;;;;;;4.00;2.70;;;13.00;99.90;;;13.07;62.31;99859.50;5512921;25;20228;-69
2024/04/10 07:51:42;;;;;;;5.73;2.60;;;13.10;99.90;;;13.09;61.82;99862.06;5505528;25;20232;-67
2024/04/10 07:54:12;;;;;;;5.27;2.77;;;13.20;99.90;;;13.05;61.87;99861.38;5515956;25;20235;-66
2024/04/10 07:56:39;;;;;;;4.70;2.43;;;13.30;99.90;;;13.20;61.95;99854.63;5519866;25;20227;-67
2024/04/10 07:59:09;;;;;;;4.87;2.60;;;13.30;99.90;;;13.47;60.00;99857.69;5518853;25;20223;-67
2024/04/10 08:01:39;;;;;;;6.33;2.70;;;13.50;99.90;;;13.53;59.05;99868.69;5513492;25;20233;-68
2024/04/10 08:04:09;;;;;;;4.40;2.33;;;13.60;99.90;;;13.49;58.64;99874.09;5520856;25;20640;-70
2024/04/10 08:06:37;;;;;;;5.60;2.23;;;13.60;76.30;;;13.64;59.01;99882.06;5519886;25;20342;-67
2024/04/10 08:09:07;;;;;;;3.97;2.10;;;13.80;89.00;;;13.63;57.76;99889.97;5527720;25;20330;-68
2024/04/10 08:11:35;;;;;;;5.80;2.53;;;13.50;38.50;;;13.78;57.25;99895.28;5526991;25;20235;-67
2024/04/10 08:14:06;;;;;;;7.53;1.90;;;13.90;29.60;;;13.98;57.22;99901.28;5525636;25;20274;-66
2024/04/10 08:16:34;;;;;;;4.77;1.83;;;14.00;30.80;;;13.93;55.98;99909.38;5527429;25;20223;-67
2024/04/10 08:19:07;;;;;;;3.87;2.37;;;14.10;1.00;;;14.32;55.73;99908.28;5530271;25;20244;-66
2024/04/10 08:21:36;;;;;;;5.23;2.30;;;14.30;1.00;;;14.59;54.88;99914.75;5531424;25;20278;-67
2024/04/10 08:24:07;;;;;;;6.03;2.40;;;14.60;1.00;;;14.94;52.52;99925.97;5529628;25;20290;-70
2024/04/10 08:26:34;;;;;;;5.00;2.40;;;15.10;1.00;;;15.17;52.84;99928.22;5529954;25;20235;-67
2024/04/10 08:29:08;;;;;;;5.10;2.60;;;15.20;1.00;;;15.10;51.13;99934.72;5527962;25;20583;-68
2024/04/10 08:31:36;;;;;;;3.57;1.93;;;15.40;1.00;;;15.11;51.43;99941.66;5527260;25;20266;-68
2024/04/10 08:34:10;;;;;;;5.97;2.60;;;15.20;1.00;;;15.49;50.79;99938.72;5526892;25;20944;-69
2024/04/10 08:36:38;;;;;;;5.57;2.33;;;15.40;1.00;;;15.51;50.20;99935.06;5519887;25;20315;-67
2024/04/10 08:39:08;;;;;;;4.23;2.10;;;15.60;1.00;;;15.92;50.02;99937.16;5515910;25;21035;-70
2024/04/10 08:41:38;;;;;;;5.03;1.80;;;15.80;1.00;;;16.79;48.02;99938.16;5515052;26;21069;-69
2024/04/10 08:44:11;;;;;;;3.30;1.70;;;16.40;1.00;;;16.65;47.03;99928.50;5512601;25;20232;-68
2024/04/10 08:46:41;;;;;;;4.47;1.60;;;16.90;1.00;;;16.31;47.73;99942.75;5507673;26;20239;-67
2024/04/10 08:49:15;;;;;;;4.70;2.10;;;16.80;1.00;;;16.49;46.51;99941.66;5493820;26;21010;-69
2024/04/10 08:51:44;;;;;;;3.83;1.67;;;16.80;1.00;;;16.66;47.52;99945.09;5494922;26;20595;-70
2024/04/10 08:54:17;;;;;;;3.50;1.80;;;16.80;1.00;;;16.53;45.77;99956.28;5501234;26;20275;-66
2024/04/10 08:56:44;;;;;;;4.60;1.57;;;16.70;1.00;;;16.06;46.60;99950.34;5503387;26;20240;-66
2024/04/10 08:59:14;;;;;;;6.23;1.90;;;16.30;1.00;;;15.79;47.54;99968.47;5504058;26;20231;-66
2024/04/10 09:01:43;;;;;;;2.93;2.00;;;15.90;1.00;;;15.44;48.85;99977.41;5510055;26;20220;-66
2024/04/10 09:04:22;;;;;;;1.70;1.60;;;15.60;1.00;;;15.17;49.87;99980.59;5507119;26;20286;-67
2024/04/10 09:06:59;;;;;;;3.40;1.50;;;15.30;1.00;;;14.59;51.16;99983.63;5511311;25;20223;-67
2024/04/10 09:09:28;;;;;;;2.93;1.60;;;15.00;1.00;;;14.72;51.97;99988.25;5514335;26;20297;-67
2024/04/10 09:11:56;;;;;;;2.73;1.70;;;14.80;1.00;;;14.80;51.35;99978.22;5512962;25;20280;-67
2024/04/10 09:14:27;;;;;;;3.90;1.30;;;14.80;1.00;;;14.52;52.49;99987.47;5508087;25;20771;-67
2024/04/10 09:17:02;;;;;;;5.20;1.60;;;14.60;1.00;;;14.08;53.96;99981.84;5508867;26;20786;-66
2024/04/10 09:19:35;;;;;;;6.30;2.47;;;14.30;1.00;;;13.99;54.86;99987.50;5502108;26;20273;-67
2024/04/10 09:22:03;;;;;;;3.53;1.40;;;14.10;1.00;;;14.06;54.79;99993.28;5503292;25;20228;-66
2024/04/10 09:24:33;;;;;;;2.13;1.70;;;14.00;1.00;;;13.89;55.78;100003.72;5497844;26;20231;-67
2024/04/10 09:27:09;;;;;;;5.53;1.80;;;13.90;1.00;;;13.82;56.59;100002.31;5512588;26;21062;-68
2024/04/10 09:29:38;;;;;;;2.63;1.40;;;13.80;1.00;;;13.67;57.57;100001.25;5507604;26;20262;-67
2024/04/10 09:32:11;;;;;;;5.77;2.00;;;13.70;1.00;;;13.51;58.80;100002.88;5504937;25;20231;-67
2024/04/10 09:34:46;;;;;;;5.83;2.10;;;13.50;20.80;;;13.35;60.15;100003.56;5508260;26;20227;-68
2024/04/10 09:37:15;;;;;;;4.30;1.90;;;13.40;57.50;;;13.28;60.87;100015.22;5499329;26;20303;-67
2024/04/10 09:39:44;;;;;;;4.17;2.00;;;13.30;96.40;;;13.34;60.22;100022.81;5513105;25;20236;-67
2024/04/10 09:42:26;;;;;;;4.67;1.90;;;13.30;94.30;;;13.53;60.47;100019.34;5511218;25;20228;-67
2024/04/10 09:45:06;;;;;;;3.13;1.90;;;13.40;99.90;;;13.55;59.13;100023.59;5512785;26;20231;-67
2024/04/10 09:47:37;;;;;;;3.10;1.60;;;13.50;59.80;;;13.36;60.25;100028.78;5515476;26;20269;-67
2024/04/10 09:50:12;;;;;;;5.57;2.33;;;13.40;92.50;;;13.30;61.09;100030.81;5516604;26;20955;-67
2024/04/10 09:52:42;;;;;;;3.80;1.73;;;13.30;99.90;;;13.26;61.72;100032.75;5513736;26;20227;-68
2024/04/10 09:55:14;;;;;;;7.00;2.50;;;13.30;99.90;;;13.35;63.95;100032.31;5511254;26;20836;-66
2024/04/10 09:57:44;;;;;;;6.03;2.90;;;13.30;99.90;;;13.51;68.13;100039.47;5488839;26;20269;-66
2024/04/10 10:00:15;;;;;;;5.33;3.23;;;13.40;1.00;;;13.64;68.66;100044.03;5508357;25;20557;-67
2024/04/10 10:02:42;;;;;;;7.83;3.40;;;13.50;1.00;;;13.82;67.37;100041.50;5499750;26;20270;-67
2024/04/10 10:05:26;;;;;;;7.17;3.63;;;13.70;99.90;;;13.97;67.57;100039.00;5509775;25;20244;-67
2024/04/10 10:08:04;;;;;;;5.70;3.07;;;13.80;99.90;;;14.19;65.98;100041.44;5510509;26;20335;-67
2024/04/10 10:10:46;;;;;;;3.40;2.50;;;14.10;99.90;;;14.52;64.41;100034.59;5508213;26;20296;-67
2024/04/10 10:13:14;;;;;;;6.10;2.63;;;14.40;99.90;;;14.92;61.85;100050.91;5510206;25;20305;-67
2024/04/10 10:15:44;;;;;;;4.27;2.73;;;14.80;99.90;;;15.43;60.48;100049.09;5514609;25;20220;-67
2024/04/10 10:18:21;;;;;;;5.10;2.90;;;15.20;99.90;;;15.88;57.82;100056.28;5511458;25;20227;-67
2024/04/10 10:21:07;;;;;;;7.00;2.57;;;15.70;74.00;;;15.85;55.76;100051.19;5517181;25;20232;-67
2024/04/10 10:23:37;;;;;;;5.67;2.43;;;15.90;1.00;;;15.74;55.96;100055.28;5512891;26;20334;-67
2024/04/10 10:26:10;;;;;;;3.77;2.03;;;16.00;1.00;;;15.87;53.81;100049.34;5500384;25;20229;-67
2024/04/10 10:28:37;;;;;;;4.60;2.40;;;15.90;1.00;;;15.67;52.26;100064.41;5503476;26;20234;-67
2024/04/10 10:31:11;;;;;;;4.77;2.50;;;15.80;1.00;;;15.65;52.64;100065.41;5506474;26;20262;-66
2024/04/10 10:33:41;;;;;;;3.70;2.23;;;15.70;1.00;;;15.56;52.87;100060.69;5503936;26;20810;-67
2024/04/10 10:36:14;;;;;;;3.40;2.10;;;15.60;1.00;;;16.05;51.46;100054.41;5511876;25;20287;-66
2024/04/10 10:38:41;;;;;;;3.73;2.00;;;15.80;1.00;;;16.24;50.21;100056.88;5511135;26;20243;-67
2024/04/10 10:41:14;;;;;;;4.27;1.80;;;16.20;1.00;;;16.64;48.04;100051.97;5509980;25;20332;-66